createdAt,value
2018-07-31T00:02:24.248Z,52.70
2018-07-31T00:04:51.816Z,52.80
2018-07-31T00:07:19.484Z,52.60
2018-07-31T00:09:47.089Z,52.80
2018-07-31T00:12:14.674Z,53.10
2018-07-31T00:14:42.255Z,53.60
2018-07-31T00:17:09.861Z,54.00
2018-07-31T00:19:37.405Z,54.00
2018-07-31T00:22:04.991Z,54.10
2018-07-31T00:24:32.613Z,54.30
2018-07-31T00:27:00.179Z,54.00
2018-07-31T00:29:27.944Z,53.80
2018-07-31T00:31:55.516Z,54.10
2018-07-31T00:34:23.094Z,54.20
2018-07-31T00:36:50.760Z,54.20
2018-07-31T00:39:18.333Z,53.90
2018-07-31T00:41:45.937Z,53.50
2018-07-31T00:44:13.546Z,53.50
2018-07-31T00:46:41.141Z,53.90
2018-07-31T00:49:08.705Z,53.80
2018-07-31T00:51:36.288Z,54.00
2018-07-31T00:54:03.913Z,54.00
2018-07-31T00:56:31.745Z,54.30
2018-07-31T00:58:59.300Z,54.40
2018-07-31T01:01:26.941Z,54.70
2018-07-31T01:03:54.547Z,54.60
2018-07-31T01:06:26.154Z,54.80
2018-07-31T01:08:53.756Z,54.80
2018-07-31T01:11:21.448Z,54.90
2018-07-31T01:13:49.315Z,54.80
2018-07-31T01:16:16.884Z,54.70
2018-07-31T01:18:44.483Z,55.00
2018-07-31T01:21:12.341Z,54.90
2018-07-31T01:23:39.958Z,54.90
2018-07-31T01:26:07.552Z,55.30
2018-07-31T01:28:35.145Z,55.70
2018-07-31T01:31:02.753Z,56.10
2018-07-31T01:33:30.361Z,56.30
2018-07-31T01:35:57.916Z,56.30
2018-07-31T01:38:25.548Z,56.40
2018-07-31T01:40:53.134Z,56.30
2018-07-31T01:43:20.696Z,56.50
2018-07-31T01:45:48.341Z,56.60
2018-07-31T01:48:15.913Z,56.50
2018-07-31T01:50:43.494Z,56.80
2018-07-31T01:53:11.033Z,57.00
2018-07-31T01:55:38.580Z,56.90
2018-07-31T01:58:06.177Z,57.00
2018-07-31T02:00:33.740Z,57.00
2018-07-31T02:03:01.284Z,57.30
2018-07-31T02:05:28.895Z,57.20
2018-07-31T02:07:56.463Z,57.10
2018-07-31T02:10:24.033Z,57.00
2018-07-31T02:12:51.614Z,57.10
2018-07-31T02:15:19.157Z,57.30
2018-07-31T02:17:46.741Z,57.60
2018-07-31T02:20:14.299Z,57.90
2018-07-31T02:22:41.827Z,58.00
2018-07-31T02:25:09.541Z,58.30
2018-07-31T02:27:37.110Z,58.50
2018-07-31T02:30:08.331Z,58.60
2018-07-31T02:32:36.957Z,58.60
2018-07-31T02:35:04.722Z,58.60
2018-07-31T02:37:32.397Z,58.90
2018-07-31T02:40:00.000Z,58.80
2018-07-31T02:42:27.575Z,58.60
2018-07-31T02:44:55.132Z,58.50
2018-07-31T02:47:22.885Z,58.60
2018-07-31T02:49:50.431Z,58.10
2018-07-31T02:52:17.985Z,58.60
2018-07-31T02:54:45.573Z,58.90
2018-07-31T02:57:13.128Z,59.50
2018-07-31T02:59:40.959Z,59.80
2018-07-31T03:02:08.537Z,59.80
2018-07-31T03:04:36.098Z,59.90
2018-07-31T03:07:03.761Z,59.90
2018-07-31T03:09:31.361Z,60.20
2018-07-31T03:11:58.957Z,60.70
2018-07-31T03:14:26.504Z,60.70
2018-07-31T03:16:54.109Z,60.80
2018-07-31T03:19:21.681Z,60.90
2018-07-31T03:21:49.298Z,61.00
2018-07-31T03:24:16.860Z,61.20
2018-07-31T03:26:44.424Z,61.20
2018-07-31T03:29:12.108Z,61.50
2018-07-31T03:31:39.654Z,61.60
2018-07-31T03:34:07.248Z,61.70
2018-07-31T03:36:34.825Z,61.60
2018-07-31T03:39:02.573Z,61.60
2018-07-31T03:41:30.281Z,61.40
2018-07-31T03:43:57.870Z,61.80
2018-07-31T03:46:25.444Z,61.90
2018-07-31T03:48:53.480Z,62.10
2018-07-31T03:51:21.030Z,62.10
2018-07-31T03:53:48.601Z,62.00
2018-07-31T03:56:16.240Z,62.30
2018-07-31T03:58:43.794Z,62.40
2018-07-31T04:01:11.388Z,62.50
2018-07-31T04:03:38.959Z,62.40
2018-07-31T04:06:06.909Z,62.10
2018-07-31T04:08:34.497Z,61.80
2018-07-31T04:11:02.084Z,61.70
2018-07-31T04:13:29.691Z,62.00
2018-07-31T04:15:57.282Z,62.00
2018-07-31T04:18:24.844Z,62.00
2018-07-31T04:20:52.456Z,61.70
2018-07-31T04:23:20.034Z,61.70
2018-07-31T04:25:47.599Z,61.20
2018-07-31T04:28:15.170Z,61.10
2018-07-31T04:30:42.752Z,60.80
2018-07-31T04:33:10.344Z,60.50
2018-07-31T04:35:37.920Z,60.30
2018-07-31T04:38:05.652Z,60.70
2018-07-31T04:40:33.233Z,61.40
2018-07-31T04:43:00.843Z,61.80
2018-07-31T04:45:28.432Z,62.00
2018-07-31T04:47:55.993Z,61.70
2018-07-31T04:50:23.552Z,61.70
2018-07-31T04:52:51.413Z,61.40
2018-07-31T04:55:18.988Z,61.70
2018-07-31T04:57:46.548Z,61.00
2018-07-31T05:00:14.148Z,60.70
2018-07-31T05:02:41.711Z,60.90
2018-07-31T05:05:09.256Z,61.10
2018-07-31T05:07:37.539Z,60.90
2018-07-31T05:10:07.012Z,60.60
2018-07-31T05:12:34.930Z,60.60
2018-07-31T05:15:02.595Z,60.60
2018-07-31T05:17:30.229Z,61.10
2018-07-31T05:19:57.973Z,60.90
2018-07-31T05:22:25.564Z,61.00
2018-07-31T05:24:53.213Z,60.90
2018-07-31T05:27:20.757Z,60.80
2018-07-31T05:29:48.301Z,60.70
2018-07-31T05:32:15.900Z,60.20
2018-07-31T05:34:43.429Z,60.20
2018-07-31T05:37:11.038Z,59.60
2018-07-31T05:39:38.958Z,60.20
2018-07-31T05:42:06.553Z,59.00
2018-07-31T05:44:34.112Z,59.10
2018-07-31T05:47:01.702Z,58.80
2018-07-31T05:49:29.285Z,57.50
2018-07-31T05:51:56.901Z,54.60
2018-07-31T05:54:24.467Z,50.50
2018-07-31T05:56:52.036Z,47.40
2018-07-31T05:59:19.589Z,45.70
2018-07-31T06:01:47.175Z,43.30
2018-07-31T06:04:14.756Z,40.20
2018-07-31T06:06:42.386Z,38.80
2018-07-31T06:09:09.964Z,37.70
2018-07-31T06:11:38.139Z,37.10
2018-07-31T06:14:06.209Z,35.40
2018-07-31T06:16:33.788Z,36.60
2018-07-31T06:19:01.807Z,38.90
2018-07-31T06:21:29.360Z,39.50
2018-07-31T06:23:56.912Z,41.80
2018-07-31T06:26:24.505Z,43.50
2018-07-31T06:28:52.092Z,44.60
2018-07-31T06:31:19.973Z,45.30
2018-07-31T06:33:47.584Z,46.60
2018-07-31T06:36:15.156Z,47.20
2018-07-31T06:38:42.789Z,46.80
2018-07-31T06:41:10.393Z,47.50
2018-07-31T06:43:38.136Z,47.60
2018-07-31T06:46:10.637Z,47.60
2018-07-31T06:48:38.408Z,47.40
2018-07-31T06:51:05.976Z,47.30
2018-07-31T06:53:33.537Z,47.00
2018-07-31T06:56:01.076Z,45.90
2018-07-31T06:58:28.924Z,45.80
2018-07-31T07:00:56.493Z,44.80
2018-07-31T07:03:24.499Z,44.50
2018-07-31T07:05:52.853Z,44.20
2018-07-31T07:08:20.456Z,43.60
2018-07-31T07:10:48.031Z,43.90
2018-07-31T07:13:15.657Z,42.80
2018-07-31T07:15:43.221Z,40.80
2018-07-31T07:18:10.865Z,39.30
2018-07-31T07:20:38.493Z,39.60
2018-07-31T07:23:06.088Z,39.10
2018-07-31T07:25:33.698Z,39.00
2018-07-31T07:28:01.289Z,39.60
2018-07-31T07:30:28.854Z,38.00
2018-07-31T07:32:56.479Z,37.80
2018-07-31T07:35:24.049Z,38.40
2018-07-31T07:37:51.629Z,38.50
2018-07-31T07:40:19.313Z,36.80
2018-07-31T07:42:46.823Z,33.00
2018-07-31T07:45:14.566Z,31.80
2018-07-31T07:47:42.213Z,32.10
2018-07-31T07:50:09.781Z,32.10
2018-07-31T07:52:37.377Z,31.80
2018-07-31T07:55:04.968Z,30.90
2018-07-31T07:57:32.585Z,30.60
2018-07-31T08:00:00.133Z,29.40
2018-07-31T08:02:27.689Z,29.50
2018-07-31T08:04:55.268Z,28.40
2018-07-31T08:07:22.833Z,27.60
2018-07-31T08:09:50.689Z,27.10
2018-07-31T08:12:18.408Z,27.10
2018-07-31T08:14:45.980Z,27.20
2018-07-31T08:17:13.577Z,26.40
2018-07-31T08:19:41.193Z,26.60
2018-07-31T08:22:08.804Z,26.50
2018-07-31T08:24:36.625Z,25.60
2018-07-31T08:27:04.498Z,25.70
2018-07-31T08:29:32.093Z,25.20
2018-07-31T08:31:59.691Z,24.20
2018-07-31T08:34:27.275Z,24.00
2018-07-31T08:36:54.848Z,25.20
2018-07-31T08:39:22.468Z,25.90
2018-07-31T08:41:50.097Z,26.90
2018-07-31T08:44:17.671Z,27.80
2018-07-31T08:46:45.240Z,28.00
2018-07-31T08:49:12.860Z,28.00
2018-07-31T08:51:40.438Z,27.90
2018-07-31T08:54:08.017Z,27.30
2018-07-31T08:56:35.701Z,28.10
2018-07-31T08:59:03.373Z,28.70
2018-07-31T09:01:31.020Z,28.60
2018-07-31T09:03:58.934Z,27.80
2018-07-31T09:06:26.504Z,27.40
2018-07-31T09:08:54.084Z,27.00
2018-07-31T09:11:21.680Z,26.10
2018-07-31T09:13:49.352Z,25.90
2018-07-31T09:16:16.974Z,25.10
2018-07-31T09:18:44.529Z,26.30
2018-07-31T09:21:12.129Z,27.60
2018-07-31T09:23:39.764Z,28.10
2018-07-31T09:26:07.396Z,27.30
2018-07-31T09:28:34.994Z,26.70
2018-07-31T09:31:08.263Z,26.40
2018-07-31T09:33:35.752Z,25.90
2018-07-31T09:36:03.335Z,25.10
2018-07-31T09:38:30.876Z,26.70
2018-07-31T09:40:58.470Z,26.20
2018-07-31T09:43:26.053Z,25.90
2018-07-31T09:45:53.746Z,25.40
2018-07-31T09:48:21.352Z,25.80
2018-07-31T09:50:48.999Z,26.20
2018-07-31T09:53:16.608Z,28.50
2018-07-31T09:55:44.195Z,29.30
2018-07-31T09:58:11.832Z,30.10
2018-07-31T10:00:45.125Z,30.00
2018-07-31T10:03:12.720Z,29.90
2018-07-31T10:05:40.320Z,30.10
2018-07-31T10:08:07.953Z,30.00
2018-07-31T10:10:35.596Z,30.00
2018-07-31T10:13:03.236Z,28.20
2018-07-31T10:15:30.880Z,27.30
2018-07-31T10:17:58.549Z,26.40
2018-07-31T10:20:25.996Z,26.50
2018-07-31T10:22:53.745Z,26.90
2018-07-31T10:25:21.366Z,27.20
2018-07-31T10:27:49.116Z,28.60
2018-07-31T10:30:16.837Z,30.10
2018-07-31T10:32:44.396Z,31.00
2018-07-31T10:35:12.003Z,31.50
2018-07-31T10:37:39.726Z,32.40
2018-07-31T10:40:07.578Z,32.20
2018-07-31T10:42:35.234Z,30.50
2018-07-31T10:45:02.864Z,28.40
2018-07-31T10:47:30.484Z,25.70
2018-07-31T10:49:58.149Z,24.30
2018-07-31T10:52:26.153Z,23.80
2018-07-31T10:54:53.757Z,23.00
2018-07-31T10:57:21.390Z,23.40
2018-07-31T10:59:49.088Z,23.40
2018-07-31T11:02:16.665Z,23.50
2018-07-31T11:04:44.271Z,24.30
2018-07-31T11:07:12.148Z,24.50
2018-07-31T11:09:39.722Z,23.50
2018-07-31T11:12:07.308Z,24.10
2018-07-31T11:14:34.929Z,23.20
2018-07-31T11:17:02.526Z,23.50
2018-07-31T11:19:30.133Z,24.10
2018-07-31T11:21:57.781Z,25.70
2018-07-31T11:24:25.400Z,26.60
2018-07-31T11:26:53.028Z,27.50
2018-07-31T11:29:20.616Z,27.40
2018-07-31T11:31:48.238Z,28.10
2018-07-31T11:34:15.859Z,28.70
2018-07-31T11:36:43.805Z,29.30
2018-07-31T11:39:11.849Z,29.50
2018-07-31T11:41:39.665Z,30.00
2018-07-31T11:44:07.371Z,30.00
2018-07-31T11:46:35.417Z,30.00
2018-07-31T11:49:03.085Z,29.60
2018-07-31T11:51:30.740Z,29.30
2018-07-31T11:53:58.349Z,29.30
2018-07-31T11:56:26.008Z,29.50
2018-07-31T11:58:53.885Z,29.60
2018-07-31T12:01:21.459Z,30.10
2018-07-31T12:03:49.029Z,30.20
2018-07-31T12:06:16.861Z,31.00
2018-07-31T12:08:44.401Z,31.30
2018-07-31T12:11:11.976Z,31.80
2018-07-31T12:13:39.545Z,31.90
2018-07-31T12:16:07.190Z,31.40
2018-07-31T12:18:34.705Z,31.30
2018-07-31T12:21:02.413Z,31.50
2018-07-31T12:23:30.095Z,31.30
2018-07-31T12:25:57.650Z,30.80
2018-07-31T12:28:25.235Z,31.20
2018-07-31T12:30:52.788Z,31.50
2018-07-31T12:33:20.388Z,31.50
2018-07-31T12:35:48.000Z,30.90
2018-07-31T12:38:15.611Z,30.80
2018-07-31T12:40:43.212Z,30.90
2018-07-31T12:43:10.776Z,30.30
2018-07-31T12:45:38.524Z,30.20
2018-07-31T12:48:06.181Z,30.90
2018-07-31T12:50:33.743Z,31.30
2018-07-31T12:53:01.394Z,31.00
2018-07-31T12:55:28.952Z,31.00
2018-07-31T12:57:56.506Z,30.90
2018-07-31T13:00:24.114Z,31.10
2018-07-31T13:02:51.757Z,30.90
2018-07-31T13:05:19.357Z,30.30
2018-07-31T13:07:47.016Z,30.80
2018-07-31T13:10:14.601Z,30.80
2018-07-31T13:12:42.180Z,31.40
2018-07-31T13:15:09.803Z,32.10
2018-07-31T13:17:37.391Z,32.40
2018-07-31T13:20:05.015Z,32.20
2018-07-31T13:22:32.643Z,32.50
2018-07-31T13:25:00.250Z,32.50
2018-07-31T13:27:27.836Z,32.30
2018-07-31T13:29:55.429Z,33.00
2018-07-31T13:32:23.050Z,32.80
2018-07-31T13:34:50.624Z,32.60
2018-07-31T13:37:18.235Z,32.90
2018-07-31T13:39:45.812Z,33.10
2018-07-31T13:42:13.421Z,33.70
2018-07-31T13:44:41.021Z,34.30
2018-07-31T13:47:08.608Z,34.80
2018-07-31T13:49:36.208Z,35.10
2018-07-31T13:52:03.793Z,35.60
2018-07-31T13:54:31.391Z,35.40
2018-07-31T13:56:59.075Z,35.30
2018-07-31T13:59:26.645Z,35.60
2018-07-31T14:01:54.230Z,35.60
2018-07-31T14:04:21.818Z,35.70
2018-07-31T14:06:49.428Z,35.40
2018-07-31T14:09:17.028Z,35.00
2018-07-31T14:11:44.624Z,34.80
2018-07-31T14:14:12.229Z,34.30
2018-07-31T14:16:40.084Z,34.00
2018-07-31T14:19:07.652Z,33.30
2018-07-31T14:21:35.596Z,32.40
2018-07-31T14:24:04.038Z,31.90
2018-07-31T14:26:31.623Z,32.20
2018-07-31T14:28:59.319Z,32.40
2018-07-31T14:31:27.140Z,32.90
2018-07-31T14:33:54.806Z,33.00
2018-07-31T14:36:22.397Z,32.90
2018-07-31T14:38:50.284Z,33.10
2018-07-31T14:41:17.859Z,33.20
2018-07-31T14:43:45.456Z,33.30
2018-07-31T14:46:13.123Z,33.20
2018-07-31T14:48:40.701Z,32.80
2018-07-31T14:51:08.293Z,32.60
2018-07-31T14:53:36.089Z,32.40
2018-07-31T14:56:03.692Z,32.40
2018-07-31T14:58:31.261Z,32.60
2018-07-31T15:01:00.107Z,33.20
2018-07-31T15:03:27.929Z,33.50
2018-07-31T15:05:55.509Z,34.00
2018-07-31T15:08:23.082Z,33.40
2018-07-31T15:10:50.738Z,33.00
2018-07-31T15:13:18.317Z,33.10
2018-07-31T15:15:45.929Z,33.40
2018-07-31T15:18:13.640Z,33.00
2018-07-31T15:20:42.042Z,32.90
2018-07-31T15:23:09.585Z,32.40
2018-07-31T15:25:37.156Z,32.10
2018-07-31T15:28:04.768Z,32.00
2018-07-31T15:30:34.100Z,31.80
2018-07-31T15:33:01.648Z,31.90
2018-07-31T15:35:29.312Z,32.10
2018-07-31T15:37:56.861Z,31.60
2018-07-31T15:40:24.504Z,31.50
2018-07-31T15:42:52.075Z,31.60
2018-07-31T15:45:20.262Z,31.10
2018-07-31T15:47:47.852Z,31.30
2018-07-31T15:50:15.400Z,31.40
2018-07-31T15:52:42.979Z,32.00
2018-07-31T15:55:10.556Z,31.70
2018-07-31T15:57:38.388Z,31.30
2018-07-31T16:00:08.073Z,31.20
2018-07-31T16:02:35.816Z,31.00
2018-07-31T16:05:04.061Z,31.20
2018-07-31T16:07:32.389Z,30.50
2018-07-31T16:10:00.014Z,30.20
2018-07-31T16:12:27.629Z,30.40
2018-07-31T16:14:55.275Z,30.00
2018-07-31T16:17:22.989Z,30.00
2018-07-31T16:19:51.658Z,30.00
2018-07-31T16:22:19.212Z,30.00
2018-07-31T16:24:47.099Z,30.30
2018-07-31T16:27:14.692Z,30.00
2018-07-31T16:29:42.266Z,30.00
2018-07-31T16:32:10.253Z,30.30
2018-07-31T16:34:37.820Z,30.60
2018-07-31T16:37:06.657Z,30.70
2018-07-31T16:39:34.270Z,30.90
2018-07-31T16:42:01.865Z,30.90
2018-07-31T16:44:29.471Z,31.00
2018-07-31T16:46:57.001Z,31.10
2018-07-31T16:49:26.625Z,31.30
2018-07-31T16:51:54.224Z,31.20
2018-07-31T16:54:21.833Z,31.40
2018-07-31T16:56:49.499Z,30.90
2018-07-31T16:59:17.054Z,30.80
2018-07-31T17:01:44.640Z,30.80
2018-07-31T17:04:12.428Z,30.40
2018-07-31T17:06:42.088Z,30.60
2018-07-31T17:09:09.725Z,30.40
2018-07-31T17:11:37.281Z,29.90
2018-07-31T17:14:05.282Z,30.60
2018-07-31T17:16:32.928Z,30.70
2018-07-31T17:19:00.498Z,30.70
2018-07-31T17:21:28.170Z,30.80
2018-07-31T17:23:56.022Z,31.30
2018-07-31T17:26:23.653Z,31.30
2018-07-31T17:28:52.609Z,32.10
2018-07-31T17:31:20.272Z,31.80
2018-07-31T17:33:47.885Z,31.60
2018-07-31T17:36:15.424Z,31.80
2018-07-31T17:38:43.002Z,31.80
2018-07-31T17:41:10.814Z,32.10
2018-07-31T17:43:38.397Z,32.10
2018-07-31T17:46:06.105Z,32.40
2018-07-31T17:48:33.731Z,32.40
2018-07-31T17:51:01.288Z,32.60
2018-07-31T17:53:29.167Z,32.60
2018-07-31T17:55:57.289Z,32.50
2018-07-31T17:58:24.903Z,32.70
2018-07-31T18:00:52.485Z,33.00
2018-07-31T18:03:26.760Z,32.90
2018-07-31T18:05:54.364Z,33.10
2018-07-31T18:08:21.909Z,33.50
2018-07-31T18:10:49.644Z,33.80
2018-07-31T18:13:17.241Z,33.80
2018-07-31T18:15:52.875Z,34.10
2018-07-31T18:18:20.669Z,34.50
2018-07-31T18:20:48.396Z,34.80
2018-07-31T18:23:16.073Z,34.90
2018-07-31T18:25:45.155Z,35.30
2018-07-31T18:28:24.004Z,35.30
2018-07-31T18:30:51.949Z,35.30
2018-07-31T18:33:29.065Z,35.40
2018-07-31T18:35:57.081Z,35.80
2018-07-31T18:38:24.761Z,35.80
2018-07-31T18:40:52.366Z,35.90
2018-07-31T18:43:20.575Z,36.10
2018-07-31T18:45:48.137Z,35.90
2018-07-31T18:48:15.886Z,36.00
2018-07-31T18:50:43.554Z,36.00
2018-07-31T18:53:11.194Z,36.30
2018-07-31T18:55:38.796Z,36.20
2018-07-31T18:58:06.535Z,36.40
2018-07-31T19:00:34.279Z,36.50
2018-07-31T19:03:01.980Z,36.80
2018-07-31T19:05:29.769Z,36.80
2018-07-31T19:07:57.492Z,36.90
2018-07-31T19:10:25.097Z,37.10
2018-07-31T19:12:52.733Z,37.20
2018-07-31T19:15:20.654Z,37.20
2018-07-31T19:17:48.413Z,37.40
2018-07-31T19:20:16.248Z,37.50
2018-07-31T19:22:43.942Z,37.70
2018-07-31T19:25:11.661Z,37.90
2018-07-31T19:27:39.389Z,37.90
2018-07-31T19:30:07.190Z,38.10
2018-07-31T19:32:34.858Z,38.30
2018-07-31T19:35:02.600Z,38.50
2018-07-31T19:37:30.422Z,38.80
2018-07-31T19:39:58.024Z,38.90
2018-07-31T19:42:25.708Z,38.90
2018-07-31T19:44:53.341Z,39.10
2018-07-31T19:47:20.982Z,39.30
2018-07-31T19:49:48.642Z,39.50
2018-07-31T19:52:16.356Z,39.60
2018-07-31T19:54:44.010Z,39.70
2018-07-31T19:57:11.986Z,39.90
2018-07-31T19:59:39.843Z,39.60
2018-07-31T20:02:07.868Z,40.30
2018-07-31T20:04:35.559Z,39.50
2018-07-31T20:07:03.311Z,40.00
2018-07-31T20:09:30.939Z,39.60
2018-07-31T20:11:58.648Z,39.70
2018-07-31T20:14:26.341Z,40.10
2018-07-31T20:16:54.104Z,40.00
2018-07-31T20:19:28.474Z,40.30
2018-07-31T20:21:56.142Z,40.20
2018-07-31T20:24:23.851Z,40.50
2018-07-31T20:26:51.627Z,40.80
2018-07-31T20:29:19.298Z,41.10
2018-07-31T20:31:46.973Z,41.30
2018-07-31T20:34:14.564Z,41.70
2018-07-31T20:36:42.380Z,42.20
2018-07-31T20:39:10.584Z,42.70
2018-07-31T20:41:39.030Z,43.30
2018-07-31T20:44:07.139Z,43.80
2018-07-31T20:46:34.754Z,44.30
2018-07-31T20:49:02.442Z,44.60
2018-07-31T20:51:30.126Z,44.90
2018-07-31T20:53:59.313Z,45.20
2018-07-31T20:56:28.213Z,45.60
2018-07-31T20:58:55.877Z,45.90
2018-07-31T21:01:23.861Z,46.30
2018-07-31T21:03:51.800Z,46.60
2018-07-31T21:06:19.418Z,46.80
2018-07-31T21:08:47.025Z,47.10
2018-07-31T21:11:15.338Z,47.20
2018-07-31T21:13:43.002Z,47.50
2018-07-31T21:16:10.667Z,47.60
2018-07-31T21:18:38.340Z,47.70
2018-07-31T21:21:06.080Z,47.80
2018-07-31T21:23:34.805Z,47.80
2018-07-31T21:26:02.486Z,47.90
2018-07-31T21:28:32.630Z,47.80
2018-07-31T21:31:00.445Z,47.80
2018-07-31T21:33:28.104Z,47.80
2018-07-31T21:35:55.778Z,48.00
2018-07-31T21:38:23.469Z,48.00
2018-07-31T21:40:51.074Z,48.00
2018-07-31T21:43:19.005Z,48.10
2018-07-31T21:45:46.636Z,48.10
2018-07-31T21:48:14.389Z,48.10
2018-07-31T21:50:42.045Z,48.10
2018-07-31T21:53:10.960Z,48.80
2018-07-31T21:55:38.621Z,48.30
2018-07-31T21:58:06.331Z,48.50
2018-07-31T22:00:39.645Z,48.50
2018-07-31T22:03:07.620Z,48.60
2018-07-31T22:05:35.223Z,48.60
2018-07-31T22:08:02.837Z,48.70
2018-07-31T22:10:30.764Z,48.80
2018-07-31T22:12:58.435Z,48.90
2018-07-31T22:15:26.106Z,49.20
2018-07-31T22:17:53.712Z,49.40
2018-07-31T22:20:21.602Z,49.30
2018-07-31T22:22:49.289Z,49.20
2018-07-31T22:25:17.207Z,49.30
2018-07-31T22:27:44.753Z,49.30
2018-07-31T22:30:12.391Z,49.40
2018-07-31T22:32:40.316Z,49.50
2018-07-31T22:35:07.937Z,49.60
2018-07-31T22:37:35.617Z,49.60
2018-07-31T22:42:36.926Z,49.80
2018-07-31T22:45:04.642Z,49.90
2018-07-31T22:47:32.315Z,50.10
2018-07-31T22:49:59.973Z,50.10
2018-07-31T22:52:27.596Z,50.40
2018-07-31T22:54:55.188Z,50.60
2018-07-31T22:57:22.818Z,50.60
2018-07-31T22:59:50.576Z,50.90
2018-07-31T23:02:18.245Z,51.10
2018-07-31T23:04:45.915Z,51.10
2018-07-31T23:07:13.857Z,51.10
2018-07-31T23:09:43.227Z,51.20
2018-07-31T23:12:10.897Z,51.50
2018-07-31T23:14:38.500Z,51.60
2018-07-31T23:17:06.315Z,51.70
2018-07-31T23:19:33.966Z,51.80
2018-07-31T23:22:01.561Z,51.90
2018-07-31T23:24:29.194Z,52.10
2018-07-31T23:26:57.080Z,51.90
2018-07-31T23:29:24.702Z,51.90
2018-07-31T23:31:52.282Z,52.20
2018-07-31T23:34:19.978Z,52.20
2018-07-31T23:36:47.609Z,52.00
2018-07-31T23:39:15.280Z,51.90
2018-07-31T23:41:42.869Z,52.20
2018-07-31T23:44:10.764Z,52.60
2018-07-31T23:46:38.587Z,52.70
2018-07-31T23:49:06.441Z,52.50
2018-07-31T23:51:34.476Z,52.50
2018-07-31T23:54:02.413Z,52.50
2018-07-31T23:56:30.004Z,52.50
2018-07-31T23:58:57.775Z,52.50
